Tiempo atmosférico en la estación meteorológica de Cabrales, Asturias (458 m.)



Fecha
DESCASC
Temp. máxima en grados centígrados (hora)
DESCASC
Temp. mínima en grados centígrados (hora)
DESCASC
Temp. media en grados centígrados
DESCASC
Racha de viento máxima en m/sg (hora)
DESCASC
Velocidad máxima media en intervalos de 10 minutos(hora)
DESCASC
Precipitaciones diarias en mm
DESCASC
Precipitaciones de 00:00 a 06:00 en mm
DESCASC
Precipitaciones de 06:00 a 12:00 en mm
DESCASC
Precipitaciones de 12:00 a 18:00 en mm
DESCASC
Precipitaciones de 18:00 a 24:00 en mm
DESCASC
22-01-2020 8.1 (15:10) 4.2 (23:59) 6.2 8.89 (08:10) 5 (11:20) 6 2.4 3.2 0.4 0
21-01-2020 6.2 (13:20) 2.3 (00:00) 4.2 8.06 (19:40) 5 (19:40) 1.8 0 0 1 0.8
20-01-2020 6 (12:40) 1.4 (07:20) 3.7 12.5 (00:20) 7.22 (00:20) 5.6 4.4 1.2 0 0
19-01-2020 7 (00:00) 2.6 (00:00) 4.8 14.44 (22:20) 8.06 (22:30) 18.2 10 4.8 2 1.4
18-01-2020 16 (13:20) 4.6 (00:00) 10.3 24.44 (15:40) 14.44 (15:30) 6.6 0 0 6.4 0.2
17-01-2020 12.2 (00:20) 5 (00:00) 8.6 10.28 (11:00) 7.22 (16:00) 1 0.2 0.8 0 0
16-01-2020 17 (02:20) 9.1 (00:00) 13.1 30 (04:30) 16.11 (04:30) 0 0 0 0 0
15-01-2020 15.3 (13:20) 6.3 (00:00) 10.8 29.17 (02:30) 16.11 (07:20) 0 0 0 0 0
14-01-2020 17.8 (14:20) 10 (00:00) 13.9 29.72 (20:30) 16.94 (20:20) 0.4 0 0.4 0 0
13-01-2020 15.2 (14:00) 4.5 (00:00) 9.8 9.44 (22:30) 3.89 (22:50) 0 0 0 0 0
12-01-2020 14.2 (14:20) 3 (00:00) 8.6 5 (17:20) 3.61 (17:20) 0 0 0 0 0
11-01-2020 12.6 (15:10) 1.1 (00:00) 6.9 5 (17:50) 3.61 (17:50) 0.2 0.2 0 0 0
10-01-2020 8.6 (14:50) 3.5 (00:00) 6.1 12.5 (00:30) 8.33 (00:30) 2.6 0.6 0.6 1.4 0
09-01-2020 18.5 (14:10) 6.9 (00:00) 12.7 21.39 (15:10) 11.39 (15:10) 3.6 0 0 3.4 0.2
08-01-2020 16.3 (14:40) 7.1 (00:00) 11.7 4.17 (15:50) 2.78 (16:00) 0 0 0 0 0
07-01-2020 15 (16:10) 3.7 (00:00) 9.4 3.61 (15:20) 2.5 (03:00) 0 0 0 0 0
06-01-2020 11.3 (13:20) 4.4 (00:00) 7.9 10 (18:40) 6.67 (18:40) 0 0 0 0 0
05-01-2020 12.5 (16:00) 1.9 (00:00) 7.2 4.17 (02:00) 2.5 (07:30) 0 0 0 0 0
04-01-2020 11.6 (14:00) 4.7 (00:00) 8.2 8.06 (23:10) 2.78 (15:40) 0.2 0 0.2 0 0
03-01-2020 9.3 (15:50) 3.9 (00:00) 6.6 5 (16:40) 3.89 (16:40) 3.6 0 1.4 2.2 0
02-01-2020 14.4 (15:20) 3.4 (00:00) 8.9 4.44 (17:30) 3.61 (17:30) 0 0 0 0 0
01-01-2020 11.8 (14:40) 2.2 (00:00) 7 4.17 (20:00) 3.33 (16:50) 0 0 0 0 0
31-12-2019 14.1 (15:00) 4.5 (00:00) 9.3 4.17 (02:40) 3.61 (02:50) 0 0 0 0 0
30-12-2019 -- (--) -- (--) -- -- (--) -- (--) -- 0 0 -- 0
29-12-2019 19.5 (16:00) 8.2 (00:00) 13.8 3.61 (18:10) 3.33 (18:00) 0 0 0 0 0
28-12-2019 16.3 (15:10) 4.2 (00:00) 10.2 6.67 (06:10) 3.89 (06:10) 0 0 0 0 0
27-12-2019 13.6 (15:20) 2.4 (00:00) 8 6.67 (17:10) 5.28 (17:00) 0 0 0 0 0
26-12-2019 18 (00:50) 4.6 (00:00) 11.3 7.22 (04:10) 3.89 (02:40) 0 0 0 0 0
25-12-2019 21.4 (14:20) 8.5 (00:00) 14.9 5 (08:50) 3.89 (19:10) 0 0 0 0 0

Gráficas

Temp. máximas Temp. mínimas Temp. medias Precipitaciones Rachas de viento máximas Velocidades máximas media en intervalos de 10 minutos

Datos horarios

Fecha y hora oficial Temperatura (ºC) Velocidad del viento (km/h) Dirección del viento Racha (km/h) Dirección de racha Precipitación (mm) Presión (hPa) Tendencia (hPa) Humedad (%)
2020-01-23 23:00:00 5.6 4 Sur 8 Sudoeste 0 -- -- 85
2020-01-23 22:00:00 5.9 2 Nordeste 5 Nordeste 0 -- -- 83
2020-01-23 21:00:00 6 4 Nordeste 7 Este 0 -- -- 89
2020-01-23 20:00:00 6.4 0 Calma 4 Este 0 -- -- 88
2020-01-23 19:00:00 6.7 3 Este 4 Este 0 -- -- 87
2020-01-23 18:00:00 7.9 0 Calma 4 Oeste 0 -- -- 80
2020-01-23 17:00:00 8.7 0 Calma 11 Sur 0 -- -- 80
2020-01-23 16:00:00 9.2 6 Sudeste 9 Sudeste 0 -- -- 76
2020-01-23 15:00:00 10 5 Sudoeste 10 Oeste 0 -- -- 78
2020-01-23 14:00:00 8.5 0 Calma 6 Sudeste 0 -- -- 76
2020-01-23 13:00:00 8.2 2 Nordeste 6 Este 0 -- -- 90
2020-01-23 12:00:00 6.2 2 Sudoeste 4 Sudoeste 0 -- -- 92
2020-01-23 11:00:00 3.8 3 Sudoeste 8 Sur 0 -- -- 100
2020-01-23 10:00:00 2.3 3 Nordeste 11 Este 0 -- -- 100
2020-01-23 09:00:00 1.8 3 Este 11 Sur 0 -- -- 100
2020-01-23 08:00:00 2.4 3 Este 5 Sur 0 -- -- 100
2020-01-23 07:00:00 2.3 0 Calma 5 Oeste 0 -- -- 100
2020-01-23 06:00:00 2.5 2 Oeste 6 Oeste 0 -- -- 100
2020-01-23 05:00:00 2.7 3 Oeste 7 Sudoeste 0 -- -- 100
2020-01-23 04:00:00 2.7 3 Este 6 Sudoeste 0 -- -- 100
2020-01-23 03:00:00 3.4 0 Calma 3 Norte 0.2 -- -- 100
2020-01-23 02:00:00 3.7 2 Oeste 6 Sudeste 0 -- -- 100
2020-01-23 01:00:00 4 0 Calma 4 Nordeste 0 -- -- 100
2020-01-23 00:00:00 4.2 4 Sudeste 8 Sudeste 0 -- -- 100
2020-01-22 23:00:00 4.6 2 Sur 8 Sudeste 0 -- -- 100
2020-01-22 22:00:00 5 0 Calma 6 Nordeste 0 -- -- 100
2020-01-22 21:00:00 5.4 6 Sudeste 15 Sudeste 0 -- -- 100
2020-01-22 20:00:00 5.8 9 Sudeste 14 Sudeste 0 -- -- 100
2020-01-22 19:00:00 5.9 4 Sudeste 13 Sudeste 0 -- -- 100
2020-01-22 18:00:00 6.2 7 Sudeste 9 Sudeste 0 -- -- 98
2020-01-22 17:00:00 6.6 4 Sudeste 6 Sudeste 0 -- -- 98
2020-01-22 16:00:00 7.4 0 Calma 4 Noroeste 0 -- -- 98
2020-01-22 15:00:00 7.7 2 Sur 17 Este 0.2 -- -- 100
2020-01-22 14:00:00 6.7 10 Sudeste 25 Este 0.2 -- -- 100
2020-01-22 13:00:00 6.4 12 Este 24 Este 0 -- -- 100
2020-01-22 12:00:00 6.3 8 Sudeste 25 Sudeste 0 -- -- 100
2020-01-22 11:00:00 5.9 16 Sudeste 28 Sudeste 1.6 -- -- 100
2020-01-22 10:00:00 5.7 15 Este 24 Sudeste 0.6 -- -- 100
2020-01-22 09:00:00 5.9 15 Sudeste 32 Sudeste 0.6 -- -- 100
2020-01-22 08:00:00 6.1 17 Sudeste 29 Sudeste 0 -- -- 100
2020-01-22 07:00:00 6 16 Sudeste 29 Sudeste 0.4 -- -- 100
2020-01-22 06:00:00 5.7 13 Sudeste 26 Este 0.2 -- -- 100
2020-01-22 05:00:00 5.6 13 Este 21 Sudeste 0 -- -- 100
2020-01-22 04:00:00 5.5 9 Sudeste 15 Sudeste 0.4 -- -- 100
2020-01-22 03:00:00 4.8 10 Sudeste 13 Este 0.2 -- -- 100
2020-01-22 02:00:00 4.8 9 Sudeste 16 Sudeste 1 -- -- 100
2020-01-22 01:00:00 4.7 13 Sudeste 18 Sudeste 0.6 -- -- 100
2020-01-22 00:00:00 4.5 11 Sudeste 18 Este 0.2 -- -- 100
2020-01-21 23:00:00 4.3 12 Este 21 Este 0 -- -- 100
2020-01-21 22:00:00 4 8 Este 19 Sudeste 0.2 -- -- 100
2020-01-21 21:00:00 3.8 13 Este 27 Este 0.2 -- -- 100
2020-01-21 20:00:00 3.7 12 Sudeste 29 Este 0 -- -- 100
2020-01-21 19:00:00 3.6 13 Sudeste 27 Sudeste 0.2 -- -- 100
2020-01-21 18:00:00 3.7 9 Este 20 Este 0.2 -- -- 99
2020-01-21 17:00:00 3.7 8 Sudeste 21 Este 0.4 -- -- 98
2020-01-21 16:00:00 4 10 Este 23 Este 0.4 -- -- 96
2020-01-21 15:00:00 4.7 9 Este 25 Sudeste 0 -- -- 91
2020-01-21 14:00:00 5.5 13 Sudeste 28 Este 0 -- -- 79
2020-01-21 13:00:00 6.1 8 Este 23 Sudeste 0 -- -- 86
2020-01-21 12:00:00 5.2 10 Sudeste 21 Sudeste 0 -- -- 89
2020-01-21 11:00:00 4.2 14 Este 23 Este 0 -- -- 94
2020-01-21 10:00:00 3.6 10 Este 23 Este 0 -- -- 90
2020-01-21 09:00:00 3.3 14 Este 18 Sudeste 0 -- -- 90
2020-01-21 08:00:00 3.3 9 Sudeste 17 Sudeste 0 -- -- 88
2020-01-21 07:00:00 3.3 8 Este 21 Este 0 -- -- 87
2020-01-21 06:00:00 3 12 Este 21 Sudeste 0 -- -- 90
2020-01-21 05:00:00 2.7 12 Este 21 Este 0 -- -- 90
2020-01-21 04:00:00 3.2 9 Este 20 Sudeste 0 -- -- 90
2020-01-21 03:00:00 3.2 14 Este 24 Sudeste 0 -- -- 92
2020-01-21 02:00:00 3 17 Este 26 Sudeste 0 -- -- 92
2020-01-21 01:00:00 2.6 15 Este 23 Este 0 -- -- 94
2020-01-21 00:00:00 2.3 17 Este 26 Este 0 -- -- 95
2020-01-20 23:00:00 2.1 13 Este 22 Este 0 -- -- 95
2020-01-20 22:00:00 2.5 20 Este 27 Este 0 -- -- 91
2020-01-20 21:00:00 2.4 11 Este 19 Este 0 -- -- 91
2020-01-20 20:00:00 2.3 13 Este 22 Sudeste 0 -- -- 91
2020-01-20 19:00:00 2.3 12 Este 28 Sudeste 0 -- -- 87
2020-01-20 18:00:00 2.9 14 Este 31 Este 0 -- -- 87
2020-01-20 17:00:00 3.5 14 Este 33 Este 0 -- -- 85
2020-01-20 16:00:00 5 10 Este 32 Este 0 -- -- 83
2020-01-20 15:00:00 4.6 6 Este 27 Este 0 -- -- 83
2020-01-20 14:00:00 4 12 Este 29 Sudeste 0 -- -- 80
2020-01-20 13:00:00 5.4 16 Sudeste 31 Sudeste 0 -- -- 70
2020-01-20 12:00:00 4.3 9 Sudeste 23 Este 0 -- -- 84
2020-01-20 11:00:00 3 15 Sudeste 28 Sudeste 0.2 -- -- 91
2020-01-20 10:00:00 1.8 11 Este 31 Sudeste 0.2 -- -- 99
2020-01-20 09:00:00 1.4 16 Sudeste 33 Sudeste 0.4 -- -- 98
2020-01-20 08:00:00 1.9 13 Sudeste 31 Sudeste 0.2 -- -- 98
2020-01-20 07:00:00 1.5 8 Este 22 Sudeste 0.2 -- -- 99
2020-01-20 06:00:00 1.6 14 Sudeste 40 Sudeste 0.4 -- -- 99
2020-01-20 05:00:00 1.8 7 Este 33 Sudeste 0.4 -- -- 99
2020-01-20 04:00:00 1.7 10 Sudeste 27 Este 1.2 -- -- 98
2020-01-20 03:00:00 2 19 Sudeste 31 Sudeste 0.6 -- -- 97
2020-01-20 02:00:00 1.8 13 Sudeste 41 Sudeste 0.8 -- -- 97
2020-01-20 01:00:00 2.1 6 Sur 45 Sudeste 1 -- -- 96
2020-01-20 00:00:00 2.9 17 Este 34 Sudeste 0.4 -- -- 92
2020-01-19 23:00:00 2.8 26 Sudeste 52 Este 1 -- -- 91
2020-01-19 22:00:00 4.2 10 Sudeste 41 Este 0 -- -- 81
2020-01-19 21:00:00 4.3 14 Este 48 Nordeste 0 -- -- 83
2020-01-19 20:00:00 4 15 Este 33 Este 0 -- -- 85
2020-01-19 19:00:00 4.2 15 Este 35 Este 0 -- -- 81
2020-01-19 18:00:00 4.1 11 Este 30 Este 0 -- -- 85
2020-01-19 17:00:00 4.9 10 Este 24 Este 0 -- -- 89
2020-01-19 16:00:00 5.3 6 Sudeste 35 Este 0 -- -- 87
2020-01-19 15:00:00 5.2 9 Sudeste 27 Este 0 -- -- 92
2020-01-19 14:00:00 4.8 11 Este 24 Este 1.4 -- -- 93
2020-01-19 13:00:00 6 4 Este 26 Sudeste 0.6 -- -- 92
2020-01-19 12:00:00 5.7 8 Este 29 Este 0 -- -- 93
2020-01-19 11:00:00 5.2 5 Sur 14 Sudoeste 0.4 -- -- 95
2020-01-19 10:00:00 4.9 10 Este 18 Este 0 -- -- 98
2020-01-19 09:00:00 5 10 Sudeste 38 Nordeste 0.2 -- -- 99
2020-01-19 08:00:00 5.1 8 Este 17 Este 1.8 -- -- 100
2020-01-19 07:00:00 5.3 2 Sudoeste 19 Este 2.4 -- -- 99
2020-01-19 06:00:00 5.4 10 Sudeste 27 Este 2 -- -- 99
2020-01-19 05:00:00 5.7 13 Este 38 Este 2.4 -- -- 99
2020-01-19 04:00:00 6.2 12 Sudeste 21 Oeste 2.6 -- -- 100
2020-01-19 03:00:00 6.2 7 Norte 16 Noroeste 3 -- -- 98
2020-01-19 02:00:00 6.5 3 Norte 14 Norte 0 -- -- 94
2020-01-19 01:00:00 6.5 8 Norte 21 Noroeste 0 -- -- 92
2020-01-19 00:00:00 7 14 Noroeste 21 Noroeste 0 -- -- 89
2020-01-18 23:00:00 6.9 9 Noroeste 30 Noroeste 0.2 -- -- 90
2020-01-18 22:00:00 7.2 13 Noroeste 23 Noroeste 0 -- -- 86
2020-01-18 21:00:00 6.9 16 Noroeste 30 Noroeste 0 -- -- 89
2020-01-18 20:00:00 7.2 19 Noroeste 41 Oeste 0 -- -- 86
2020-01-18 19:00:00 7 10 Noroeste 33 Oeste 0 -- -- 84
2020-01-18 18:00:00 7.4 19 Oeste 36 Oeste 0 -- -- 81
2020-01-18 17:00:00 6.8 23 Oeste 54 Oeste 4.6 -- -- 86
2020-01-18 16:00:00 7.2 30 Oeste 100 Norte 1.8 -- -- 93
2020-01-18 15:00:00 15.7 38 Sudoeste 60 Oeste 0 -- -- 46
2020-01-18 14:00:00 16 34 Sudoeste 59 Sudoeste 0 -- -- 44
2020-01-18 13:00:00 15.4 14 Noroeste 61 Oeste 0 -- -- 45
2020-01-18 12:00:00 15.5 28 Sudoeste 60 Oeste 0 -- -- 46
2020-01-18 11:00:00 13.9 17 Oeste 53 Oeste 0 -- -- 49
2020-01-18 10:00:00 11.7 13 Sudoeste 50 Oeste 0 -- -- 56
2020-01-18 09:00:00 9.6 9 Sur 35 Sudoeste 0 -- -- 61
2020-01-18 08:00:00 6.3 9 Sur 22 Sur 0 -- -- 73
2020-01-18 07:00:00 5.8 13 Este 22 Nordeste 0 -- -- 80
2020-01-18 06:00:00 4.9 5 Nordeste 18 Este 0 -- -- 91
2020-01-18 05:00:00 4.8 2 Oeste 14 Este 0 -- -- 91
2020-01-18 04:00:00 5.3 6 Sudeste 9 Sudeste 0 -- -- 89
2020-01-18 03:00:00 5.1 11 Sudeste 19 Sudeste 0 -- -- 90
2020-01-18 02:00:00 5.3 8 Sudeste 14 Sudeste 0 -- -- 87
2020-01-18 01:00:00 5.5 2 Sur 14 Sudeste 0 -- -- 87
2020-01-18 00:00:00 5.4 6 Sudeste 13 Sudeste 0 -- -- 87
2020-01-17 23:00:00 5.4 3 Sudeste 6 Sudeste 0 -- -- 86
2020-01-17 22:00:00 5.5 5 Sur 16 Sudeste 0 -- -- 86
2020-01-17 21:00:00 5.5 12 Sudeste 16 Sudeste 0 -- -- 85
2020-01-17 20:00:00 6.5 5 Sudeste 9 Sudoeste 0 -- -- 79
2020-01-17 19:00:00 6.9 3 Oeste 14 Oeste 0 -- -- 79
2020-01-17 18:00:00 7.6 12 Oeste 17 Norte 0 -- -- 75
2020-01-17 17:00:00 8.6 10 Norte 33 Oeste 0 -- -- 71
2020-01-17 16:00:00 10.3 26 Oeste 35 Oeste 0 -- -- 54
2020-01-17 15:00:00 10.4 23 Oeste 35 Oeste 0 -- -- 59
2020-01-17 14:00:00 10.1 20 Noroeste 36 Noroeste 0 -- -- 65
2020-01-17 13:00:00 9 22 Norte 33 Noroeste 0 -- -- 73
2020-01-17 12:00:00 7.4 9 Noroeste 34 Noroeste 0 -- -- 83
2020-01-17 11:00:00 6.9 24 Noroeste 37 Noroeste 0 -- -- 84
2020-01-17 10:00:00 6.5 14 Oeste 22 Oeste 0 -- -- 89
2020-01-17 09:00:00 6.1 12 Oeste 29 Noroeste 0 -- -- 91
2020-01-17 08:00:00 6.4 21 Noroeste 32 Noroeste 0.8 -- -- 92
2020-01-17 07:00:00 6.9 11 Noroeste 28 Norte 0 -- -- 93
2020-01-17 06:00:00 7.3 22 Noroeste 36 Oeste 0.2 -- -- 93
2020-01-17 05:00:00 8.5 18 Noroeste 28 Noroeste 0 -- -- 89
2020-01-17 04:00:00 9.1 2 Nordeste 13 Noroeste 0 -- -- 87
2020-01-17 03:00:00 9.1 5 Sudoeste 14 Sudeste 0 -- -- 88
2020-01-17 02:00:00 9.8 8 Sudeste 24 Sudoeste 0 -- -- 82
2020-01-17 01:00:00 10.9 13 Oeste 20 Noroeste 0 -- -- 70
2020-01-17 00:00:00 11.5 6 Este 55 Sudoeste 0 -- -- 62
2020-01-16 23:00:00 10.3 7 Oeste 60 Sudoeste 0 -- -- 77
2020-01-16 22:00:00 10.6 16 Este 44 Sur 0 -- -- 80
2020-01-16 21:00:00 13.7 28 Sudoeste 73 Sudoeste 0 -- -- 51
2020-01-16 20:00:00 14.2 26 Nordeste 49 Nordeste 0 -- -- 50
2020-01-16 19:00:00 14.6 13 Sur 65 Sudoeste 0 -- -- 49
2020-01-16 18:00:00 14.9 29 Sur 65 Sudoeste 0 -- -- 48
2020-01-16 17:00:00 15.6 17 Sudeste 57 Sudeste 0 -- -- 47
2020-01-16 16:00:00 15.6 19 Este 53 Sur 0 -- -- 49
2020-01-16 15:00:00 15.9 31 Sudoeste 76 Sudoeste 0 -- -- 45
2020-01-16 14:00:00 15.9 31 Sudoeste 90 Sur 0 -- -- 48
2020-01-16 13:00:00 15.6 14 Sudeste 59 Sudoeste 0 -- -- 53
2020-01-16 12:00:00 16.3 32 Sudoeste 95 Sudoeste 0 -- -- 50
2020-01-16 11:00:00 15.7 23 Sudoeste 74 Oeste 0 -- -- 52
2020-01-16 10:00:00 15.9 25 Sudoeste 58 Oeste 0 -- -- 51
2020-01-16 09:00:00 16.2 13 Sudoeste 74 Sudoeste 0 -- -- 50
2020-01-16 08:00:00 16.4 21 Oeste 53 Oeste 0 -- -- 47
2020-01-16 07:00:00 16.1 17 Sudeste 80 Sudoeste 0 -- -- 46
2020-01-16 06:00:00 16.4 20 Sur 78 Sur 0 -- -- 43
2020-01-16 05:00:00 16.3 18 Sudoeste 108 Sur 0 -- -- 46
2020-01-16 04:00:00 16.4 33 Sudoeste 68 Sudoeste 0 -- -- 49
2020-01-16 03:00:00 14.9 5 Norte 95 Sudoeste 0 -- -- 53
2020-01-16 02:00:00 16.2 33 Sudoeste -- -- 0 -- -- 46
2020-01-16 01:00:00 12.1 15 Este 61 Oeste 0 -- -- 60
2020-01-16 00:00:00 9.1 25 Este 45 Sudoeste 0 -- -- 72
2020-01-15 23:00:00 7.1 12 Este 40 Sudoeste 0 -- -- 98
2020-01-15 22:00:00 6.6 4 Este 10 Este 0 -- -- 99
2020-01-15 21:00:00 7 3 Este 31 Este 0 -- -- 97
2020-01-15 20:00:00 7.6 19 Sudeste 36 Este 0 -- -- 96
2020-01-15 19:00:00 8.3 14 Sudeste 30 Sudeste 0 -- -- 93
2020-01-15 18:00:00 9.5 3 Norte 17 Este 0 -- -- 88
2020-01-15 17:00:00 9.8 7 Sudoeste 14 Sudoeste 0 -- -- 85
2020-01-15 16:00:00 10.5 11 Sudoeste 23 Sudeste 0 -- -- 83
2020-01-15 15:00:00 11.7 12 Este 35 Sudeste 0 -- -- 80
2020-01-15 14:00:00 14.1 14 Sudeste 31 Este 0 -- -- 72
2020-01-15 13:00:00 14.4 6 Norte 19 Sudeste 0 -- -- 70
2020-01-15 12:00:00 13.3 7 Sudoeste 27 Este 0 -- -- 71
2020-01-15 11:00:00 10.5 11 Noroeste 50 Oeste 0 -- -- 85
2020-01-15 10:00:00 13.3 7 Norte 44 Sudoeste 0 -- -- 61
2020-01-15 09:00:00 14.6 50 Sudoeste 93 Sudoeste 0 -- -- 50
2020-01-15 08:00:00 14.5 42 Sudoeste 103 Sudoeste 0 -- -- 49
2020-01-15 07:00:00 14.1 25 Sudoeste 80 Sur 0 -- -- 52
2020-01-15 06:00:00 14.1 16 Sudeste 87 Sudoeste 0 -- -- 52
2020-01-15 05:00:00 14 11 Nordeste 60 Sudoeste 0 -- -- 53
2020-01-15 04:00:00 14.3 18 Sudoeste 97 Oeste 0 -- -- 49
2020-01-15 03:00:00 14.4 32 Sudoeste 105 Sudoeste 0 -- -- 50
2020-01-15 02:00:00 14.4 12 Sur 68 Sudoeste 0 -- -- 47
2020-01-15 01:00:00 14 17 Sudeste 91 Sudoeste 0 -- -- 46
2020-01-15 00:00:00 13.2 35 Sudoeste 58 Sudoeste 0 -- -- 51
2020-01-14 23:00:00 13.1 21 Sudoeste 94 Sudoeste 0 -- -- 48
2020-01-14 22:00:00 13.7 50 Sudoeste 98 Oeste 0 -- -- 43
2020-01-14 21:00:00 13.5 31 Sudoeste 107 Sudoeste 0 -- -- 45
2020-01-14 20:00:00 14.2 41 Sudoeste 84 Sudoeste 0 -- -- 42
2020-01-14 19:00:00 14 55 Sudoeste 88 Sudoeste 0 -- -- 41
2020-01-14 18:00:00 14.1 32 Sudoeste 83 Sudoeste 0 -- -- 38
2020-01-14 17:00:00 13.7 21 Oeste 46 Oeste 0 -- -- 42
2020-01-14 16:00:00 14.1 26 Sudoeste 60 Sudoeste 0 -- -- 39
2020-01-14 15:00:00 16.3 28 Oeste 49 Sudoeste 0 -- -- 31
2020-01-14 14:00:00 17.1 7 Sur 22 Sudeste 0 -- -- 38
2020-01-14 13:00:00 16.3 5 Este 14 Este 0 -- -- 44
2020-01-14 12:00:00 13.6 6 Este 23 Sur 0 -- -- 57
2020-01-14 11:00:00 12.9 14 Sudeste 30 Sudeste 0 -- -- 53
2020-01-14 10:00:00 12.2 16 Sudeste 35 Sudeste 0 -- -- 60
2020-01-14 09:00:00 10.8 12 Sudeste 33 Sudeste 0 -- -- 72
2020-01-14 08:00:00 10 12 Este 21 Este 0.2 -- -- 79
2020-01-14 07:00:00 10.3 13 Este 20 Este 0.2 -- -- 75
2020-01-14 06:00:00 10.9 13 Este 20 Sudeste 0 -- -- 63
2020-01-14 05:00:00 11.4 10 Este 23 Sudeste 0 -- -- 60
2020-01-14 04:00:00 10.7 15 Sudeste 24 Sudeste 0 -- -- 55
2020-01-14 03:00:00 11 15 Sudeste 28 Sudeste 0 -- -- 52
2020-01-14 02:00:00 11.2 8 Sudeste 19 Sur 0 -- -- 44
2020-01-14 01:00:00 11.4 11 Sudeste 46 Sudoeste 0 -- -- 42
2020-01-14 00:00:00 10.3 9 Sudeste 17 Este 0 -- -- 45
2020-01-13 23:00:00 10.1 6 Norte 34 Sur 0 -- -- 45
2020-01-13 22:00:00 8.8 9 Este 15 Este 0 -- -- 51
2020-01-13 21:00:00 9.6 4 Sudeste 14 Oeste 0 -- -- 48
2020-01-13 20:00:00 10 5 Oeste 10 Sudoeste 0 -- -- 47
2020-01-13 19:00:00 10.7 3 Sudoeste 12 Sudoeste 0 -- -- 50
2020-01-13 18:00:00 11.2 6 Sudeste 12 Sudoeste 0 -- -- 49
2020-01-13 17:00:00 12.9 0 Calma 6 Sudoeste 0 -- -- 43
2020-01-13 16:00:00 13.6 0 Calma 8 Sudoeste 0 -- -- 43
2020-01-13 15:00:00 14.6 2 Sur 9 Sudoeste 0 -- -- 48
2020-01-13 14:00:00 15.2 5 Sudeste 9 Sudoeste 0 -- -- 42
2020-01-13 13:00:00 13.5 6 Sudeste 10 Sudeste 0 -- -- 48
2020-01-13 12:00:00 11.5 6 Sur 12 Sudeste 0 -- -- 46
2020-01-13 11:00:00 7.7 0 Calma 8 Sudoeste 0 -- -- 51
2020-01-13 10:00:00 6.6 2 Este 5 Nordeste 0 -- -- 53
2020-01-13 09:00:00 5.7 2 Sudoeste 14 Sur 0 -- -- 55
2020-01-13 08:00:00 4.8 10 Sudeste 17 Sudeste 0 -- -- 61
2020-01-13 07:00:00 4.9 3 Este 8 Nordeste 0 -- -- 58
2020-01-13 06:00:00 4.9 0 Calma 8 Sudeste 0 -- -- 60
2020-01-13 05:00:00 4.5 5 Este 7 Este 0 -- -- 63
2020-01-13 04:00:00 4.9 0 Calma 5 Este 0 -- -- 73
2020-01-13 03:00:00 5.6 0 Calma 6 Sudoeste 0 -- -- 68
2020-01-13 02:00:00 5.5 3 Oeste 6 Sudoeste 0 -- -- 74
2020-01-13 01:00:00 4.6 3 Este 6 Este 0 -- -- 77
2020-01-13 00:00:00 5.3 2 Nordeste 5 Sudeste 0 -- -- 76
2020-01-12 23:00:00 5.8 0 Calma 9 Sudeste 0 -- -- 77
2020-01-12 22:00:00 6.1 6 Sudeste 14 Sudeste 0 -- -- 74
2020-01-12 21:00:00 6.8 6 Sudeste 13 Sudeste 0 -- -- 73
2020-01-12 20:00:00 7.3 7 Sudeste 8 Sudeste 0 -- -- 69
2020-01-12 19:00:00 8.6 3 Sudeste 8 Este 0 -- -- 61
2020-01-12 18:00:00 9.3 6 Sudeste 18 Sudeste 0 -- -- 58
2020-01-12 17:00:00 11.6 11 Sudeste 13 Sudeste 0 -- -- 55
2020-01-12 16:00:00 13.8 4 Sudeste 12 Sudeste 0 -- -- 47
2020-01-12 15:00:00 14 9 Sudeste 13 Sudeste 0 -- -- 47
2020-01-12 14:00:00 14 3 Sudoeste 6 Oeste 0 -- -- 46
2020-01-12 13:00:00 13.1 3 Sudoeste 5 Sudoeste 0 -- -- 39
2020-01-12 12:00:00 11.1 2 Sudoeste 5 Sudoeste 0 -- -- 41
2020-01-12 11:00:00 7.5 3 Sudoeste 5 Sudoeste 0 -- -- 51
2020-01-12 10:00:00 4.5 0 Calma 5 Sudeste 0 -- -- 61
2020-01-12 09:00:00 3.1 3 Este 5 Este 0 -- -- 70
2020-01-12 08:00:00 3.5 0 Calma 4 Sur 0 -- -- 69
2020-01-12 07:00:00 3.4 2 Este 5 Sudoeste 0 -- -- 69
2020-01-12 06:00:00 3.4 0 Calma 6 Sudoeste 0 -- -- 72
2020-01-12 05:00:00 3 4 Sudeste 8 Sudoeste 0 -- -- 72
2020-01-12 04:00:00 3.2 6 Sudoeste 9 Sudoeste 0 -- -- 79
2020-01-12 03:00:00 3.2 3 Este 6 Sudeste 0 -- -- 76
2020-01-12 02:00:00 3.4 4 Sudeste 10 Este 0 -- -- 78
2020-01-12 01:00:00 4.6 0 Calma 6 Sudoeste 0 -- -- 73
2020-01-12 00:00:00 4.9 3 Sudoeste 9 Este 0 -- -- 75
2020-01-11 23:00:00 5.3 8 Este 9 Este 0 -- -- 76
2020-01-11 22:00:00 6.4 3 Oeste 8 Oeste 0 -- -- 69
2020-01-11 21:00:00 7 6 Noroeste 8 Noroeste 0 -- -- 67
2020-01-11 20:00:00 7.8 5 Oeste 9 Oeste 0 -- -- 63
2020-01-11 19:00:00 8.4 3 Noroeste 17 Oeste 0 -- -- 62
2020-01-11 18:00:00 8.9 12 Oeste 18 Oeste 0 -- -- 63
2020-01-11 17:00:00 9.8 8 Noroeste 12 Noroeste 0 -- -- 62
2020-01-11 16:00:00 11.8 5 Noroeste 10 Noroeste 0 -- -- 55
2020-01-11 15:00:00 12.3 3 Sudoeste 8 Oeste 0 -- -- 57
2020-01-11 14:00:00 10.6 6 Sudoeste 9 Sudoeste 0 -- -- 55
2020-01-11 13:00:00 9.1 3 Sudoeste 6 Sudeste 0 -- -- 74
2020-01-11 12:00:00 7.2 4 Sudoeste 13 Sudeste 0 -- -- 80
2020-01-11 11:00:00 3.9 6 Sudeste 11 Sudeste 0 -- -- 100
2020-01-11 10:00:00 1.9 0 Calma 9 Sudeste 0 -- -- 100
2020-01-11 09:00:00 1.5 5 Este 6 Este 0 -- -- 100
2020-01-11 08:00:00 1.3 2 Este 6 Este 0 -- -- 100
2020-01-11 07:00:00 1.2 4 Este 8 Este 0 -- -- 100
2020-01-11 06:00:00 1.5 4 Este 8 Sudeste 0 -- -- 100
2020-01-11 05:00:00 1.6 4 Este 7 Sudoeste 0 -- -- 100
2020-01-11 04:00:00 1.9 3 Sur 9 Sudeste 0 -- -- 100
2020-01-11 03:00:00 2.4 0 Calma 5 Sudeste 0 -- -- 100
2020-01-11 02:00:00 3.3 3 Sudoeste 7 Sudoeste 0.2 -- -- 100
2020-01-11 01:00:00 3 0 Calma 5 Este 0 -- -- 100
2020-01-11 00:00:00 3.5 0 Calma 3 Sudoeste 0 -- -- 100
2020-01-10 23:00:00 3.8 2 Sudeste 8 Sudeste 0 -- -- 100
2020-01-10 22:00:00 4.3 0 Calma 4 Sudoeste 0 -- -- 100
2020-01-10 21:00:00 4.7 2 Este 6 Sudoeste 0 -- -- 100
2020-01-10 20:00:00 4.7 4 Sudoeste 5 Sudoeste 0 -- -- 99
2020-01-10 19:00:00 5.5 2 Sudeste 8 Nordeste 0 -- -- 98
2020-01-10 18:00:00 6 7 Nordeste 10 Nordeste 0 -- -- 97
2020-01-10 17:00:00 6.9 3 Noroeste 12 Oeste 0.2 -- -- 98
2020-01-10 16:00:00 7.7 10 Nordeste 18 Norte 0.6 -- -- 95
2020-01-10 15:00:00 8.6 5 Noroeste 10 Noroeste 0 -- -- 95
2020-01-10 14:00:00 7.9 0 Calma 6 Este 0.4 -- -- 95
2020-01-10 13:00:00 7.9 3 Norte 16 Norte 0.2 -- -- 96
2020-01-10 12:00:00 6.9 6 Norte 15 Noroeste 0 -- -- 97
2020-01-10 11:00:00 6.3 8 Noroeste 15 Noroeste 0.4 -- -- 95
2020-01-10 10:00:00 5.5 4 Norte 15 Noroeste 0 -- -- 95
2020-01-10 09:00:00 5.4 12 Noroeste 27 Oeste 0 -- -- 94
2020-01-10 08:00:00 5.5 10 Noroeste 36 Oeste 0.2 -- -- 92
2020-01-10 07:00:00 5.6 19 Noroeste 28 Noroeste 0 -- -- 89
2020-01-10 06:00:00 5.7 20 Noroeste 33 Noroeste 0 -- -- 86
2020-01-10 05:00:00 5.9 12 Noroeste 32 Noroeste 0 -- -- 81
2020-01-10 04:00:00 5.7 16 Noroeste 32 Noroeste 0.2 -- -- 91
2020-01-10 03:00:00 6.2 17 Noroeste 41 Noroeste 0.2 -- -- 87
2020-01-10 02:00:00 6.4 18 Noroeste 45 Oeste 0 -- -- 86
2020-01-10 01:00:00 6.4 19 Noroeste 45 Noroeste 0.2 -- -- 86
2020-01-10 00:00:00 7.6 17 Noroeste 35 Norte 0 -- -- 72
2020-01-09 23:00:00 8 25 Noroeste 50 Oeste 0 -- -- 67
2020-01-09 22:00:00 8.1 28 Oeste 49 Oeste 0 -- -- 67
2020-01-09 21:00:00 7 26 Noroeste 41 Noroeste 0 -- -- 77
2020-01-09 20:00:00 7.3 29 Noroeste 44 Noroeste 0 -- -- 85
2020-01-09 19:00:00 7.8 17 Noroeste 26 Noroeste 0.2 -- -- 88
2020-01-09 18:00:00 8.1 16 Noroeste 40 Noroeste 1 -- -- 97
2020-01-09 17:00:00 8 24 Noroeste 50 Oeste 1.6 -- -- 98
2020-01-09 16:00:00 8.7 19 Noroeste 77 Norte 0.8 -- -- 96
2020-01-09 15:00:00 12.5 38 Noroeste 70 Norte 0 -- -- 78
2020-01-09 14:00:00 18.2 10 Sudoeste 29 Sudoeste 0 -- -- 45
2020-01-09 13:00:00 18.2 5 Sudeste 10 Sur 0 -- -- 50
2020-01-09 12:00:00 16.8 8 Sudeste 14 Sudeste 0 -- -- 54
2020-01-09 11:00:00 13.1 4 Sur 22 Sudeste 0 -- -- 62
2020-01-09 10:00:00 9.2 18 Sudeste 27 Sudeste 0 -- -- 73
2020-01-09 09:00:00 9.3 3 Sudoeste 17 Sudeste 0 -- -- 69
2020-01-09 08:00:00 8.8 9 Sudeste 12 Sudeste 0 -- -- 69
2020-01-09 07:00:00 9.6 2 Nordeste 5 Sudoeste 0 -- -- 67
2020-01-09 06:00:00 8.8 3 Sudeste 13 Sur 0 -- -- 68
2020-01-09 05:00:00 8.7 2 Sudeste 5 Sudoeste 0 -- -- 66
2020-01-09 04:00:00 8.6 5 Sudeste 8 Sudeste 0 -- -- 64
2020-01-09 03:00:00 9.1 4 Sudoeste 7 Este 0 -- -- 58
2020-01-09 02:00:00 8.8 4 Este 6 Este 0 -- -- 60
2020-01-09 01:00:00 9.3 4 Este 5 Este 0 -- -- 57
2020-01-09 00:00:00 9.6 0 Calma 4 Este 0 -- -- 56
2020-01-08 23:00:00 9.5 4 Este 5 Este 0 -- -- 59
2020-01-08 22:00:00 10 4 Oeste 5 Oeste 0 -- -- 55
2020-01-08 21:00:00 9.6 3 Este 4 Este 0 -- -- 59
2020-01-08 20:00:00 10.1 2 Sudeste 5 Sudeste 0 -- -- 54
2020-01-08 19:00:00 10.4 2 Sudeste 9 Este 0 -- -- 54
2020-01-08 18:00:00 12.1 7 Sudeste 8 Sudeste 0 -- -- 46
2020-01-08 17:00:00 13.8 4 Sudoeste 10 Sudeste 0 -- -- 45
2020-01-08 16:00:00 16 10 Sudeste 15 Sudeste 0 -- -- 37
2020-01-08 15:00:00 16 3 Sur 10 Sur 0 -- -- 43
2020-01-08 14:00:00 15.5 3 Sudoeste 6 Sudoeste 0 -- -- 43
2020-01-08 13:00:00 14 4 Sudoeste 6 Sudoeste 0 -- -- 44
2020-01-08 12:00:00 12.9 2 Sudoeste 7 Sudeste 0 -- -- 45
2020-01-08 11:00:00 9.9 3 Sur 8 Sudeste 0 -- -- 53
2020-01-08 10:00:00 7.7 4 Sudeste 6 Sudeste 0 -- -- 53
2020-01-08 09:00:00 7.5 0 Calma 5 Este 0 -- -- 50
2020-01-08 08:00:00 7.2 4 Este 6 Este 0 -- -- 52
2020-01-08 07:00:00 7.8 4 Sudeste 5 Sudeste 0 -- -- 49
2020-01-08 06:00:00 8 2 Oeste 5 Este 0 -- -- 46
2020-01-08 05:00:00 7.7 3 Este 5 Este 0 -- -- 48
2020-01-08 04:00:00 8 3 Este 5 Este 0 -- -- 47
2020-01-08 03:00:00 8.6 0 Calma 3 Este 0 -- -- 46
2020-01-08 02:00:00 8.7 0 Calma 5 Sudoeste 0 -- -- 47
2020-01-08 01:00:00 8.5 0 Calma 4 Nordeste 0 -- -- 49
2020-01-08 00:00:00 8.5 3 Este 4 Este 0 -- -- 52
2020-01-07 23:00:00 8.5 2 Noroeste 4 Nordeste 0 -- -- 57
2020-01-07 22:00:00 8.6 3 Este 5 Este 0 -- -- 62
2020-01-07 21:00:00 9.1 0 Calma 5 Sudoeste 0 -- -- 55
2020-01-07 20:00:00 9 4 Sudoeste 6 Sudeste 0 -- -- 58
2020-01-07 19:00:00 9.4 5 Sudeste 9 Sudeste 0 -- -- 53
2020-01-07 18:00:00 11.4 0 Calma 3 Este 0 -- -- 51
2020-01-07 17:00:00 13 2 Noroeste 6 Oeste 0 -- -- 47
2020-01-07 16:00:00 14.8 4 Oeste 13 Oeste 0 -- -- 46
2020-01-07 15:00:00 14.6 7 Oeste 10 Oeste 0 -- -- 49
2020-01-07 14:00:00 14.2 3 Sudoeste 7 Oeste 0 -- -- 48
2020-01-07 13:00:00 13.5 3 Sudoeste 7 Oeste 0 -- -- 51
2020-01-07 12:00:00 11.9 7 Oeste 10 Oeste 0 -- -- 44
2020-01-07 11:00:00 9.3 2 Oeste 5 Oeste 0 -- -- 51
2020-01-07 10:00:00 7 0 Calma 5 Nordeste 0 -- -- 52
2020-01-07 09:00:00 5.7 2 Nordeste 6 Nordeste 0 -- -- 59
2020-01-07 08:00:00 5 4 Sur 10 Sur 0 -- -- 62
2020-01-07 07:00:00 4.6 4 Nordeste 7 Este 0 -- -- 69
2020-01-07 06:00:00 4.3 2 Este 6 Este 0 -- -- 72
2020-01-07 05:00:00 4.2 3 Este 6 Este 0 -- -- 80
2020-01-07 04:00:00 3.8 4 Sudeste 9 Sudeste 0 -- -- 83
2020-01-07 03:00:00 3.9 9 Sudeste 13 Sudeste 0 -- -- 88
2020-01-07 02:00:00 4 4 Sudeste 12 Sudeste 0 -- -- 93
2020-01-07 01:00:00 4.5 8 Sudeste 10 Sudeste 0 -- -- 95
2020-01-07 00:00:00 4.5 3 Sur 11 Sudeste 0 -- -- 94
2020-01-06 23:00:00 5.3 0 Calma 6 Sudoeste 0 -- -- 96
2020-01-06 22:00:00 5.2 3 Sudoeste 15 Sudeste 0 -- -- 98
2020-01-06 21:00:00 5 9 Este 15 Este 0 -- -- 95
2020-01-06 20:00:00 6.5 3 Noroeste 12 Oeste 0 -- -- 93
2020-01-06 19:00:00 7.1 8 Oeste 36 Oeste 0 -- -- 91
2020-01-06 18:00:00 7.5 9 Oeste 18 Sudeste 0 -- -- 87
2020-01-06 17:00:00 8.3 13 Sudeste 15 Este 0 -- -- 84
2020-01-06 16:00:00 9.8 5 Oeste 12 Oeste 0 -- -- 77
2020-01-06 15:00:00 9.9 7 Oeste 20 Oeste 0 -- -- 79
2020-01-06 14:00:00 10.6 11 Oeste 26 Oeste 0 -- -- 80
2020-01-06 13:00:00 10.5 8 Oeste 10 Oeste 0 -- -- 69
2020-01-06 12:00:00 8.7 6 Oeste 13 Sudeste 0 -- -- 71
2020-01-06 11:00:00 6.9 11 Sudeste 16 Este 0 -- -- 77
2020-01-06 10:00:00 5.5 10 Sudeste 13 Sudeste 0 -- -- 79